Time;durP1;ratioP1;P1;durP2;ratioP2;P2;SDS_P1;SDS_P2;PMS_P1;PMS_P2;Temp;Humidity;BMP_temperature;BMP_pressure;BME280_temperature;BME280_humidity;BME280_pressure;Samples;Min_cycle;Max_cycle;Signal;HPM_P1;HPM_P2
2022/02/26 00:01:00;;;;;;;15.75;6.50;;;4.00;99.90;;;;;;2104385;28;20129;-68
2022/02/26 00:02:00;;;;;;;14.93;5.57;;;4.00;99.90;;;;;;2103379;28;20028;-68
2022/02/26 00:03:01;;;;;;;13.98;6.32;;;4.00;99.90;;;;;;2107869;28;20089;-68
2022/02/26 00:04:02;;;;;;;14.85;7.20;;;4.00;99.90;;;;;;2105191;28;20051;-68
2022/02/26 00:05:03;;;;;;;15.00;6.28;;;4.00;99.90;;;;;;2103917;28;20044;-68
2022/02/26 00:06:04;;;;;;;19.10;6.80;;;4.00;99.90;;;;;;2105558;28;20028;-68
2022/02/26 00:07:04;;;;;;;17.92;6.53;;;3.90;99.90;;;;;;2104217;28;20517;-68
2022/02/26 00:08:05;;;;;;;15.55;5.55;;;3.90;99.90;;;;;;2105099;28;20370;-68
2022/02/26 00:09:06;;;;;;;17.08;6.95;;;3.90;99.90;;;;;;2106980;28;20460;-68
2022/02/26 00:10:07;;;;;;;18.13;6.85;;;3.90;99.90;;;;;;2106392;28;20024;-68
2022/02/26 00:11:07;;;;;;;11.63;6.22;;;3.90;99.90;;;;;;2107137;28;20472;-68
2022/02/26 00:12:08;;;;;;;18.52;7.03;;;3.90;99.90;;;;;;2107619;28;20020;-68
2022/02/26 00:13:09;;;;;;;20.35;6.50;;;3.90;99.90;;;;;;2107242;28;20024;-68
2022/02/26 00:14:09;;;;;;;19.52;6.75;;;3.90;99.90;;;;;;2104723;28;20051;-68
2022/02/26 00:15:10;;;;;;;11.70;6.00;;;3.90;99.90;;;;;;2104402;28;20035;-68
2022/02/26 00:16:10;;;;;;;19.27;6.38;;;3.90;99.90;;;;;;2104010;28;20388;-68
2022/02/26 00:17:11;;;;;;;13.50;6.60;;;3.90;99.90;;;;;;2106449;28;20020;-68
2022/02/26 00:18:11;;;;;;;21.58;7.32;;;3.80;99.90;;;;;;2104912;28;20039;-68
2022/02/26 00:19:12;;;;;;;22.30;8.85;;;3.80;99.90;;;;;;2107380;28;20430;-68
2022/02/26 00:20:13;;;;;;;22.02;6.88;;;3.80;99.90;;;;;;2103592;28;20044;-68
2022/02/26 00:21:14;;;;;;;17.45;6.72;;;3.80;99.90;;;;;;2103219;28;20047;-68
2022/02/26 00:22:14;;;;;;;20.80;6.38;;;3.80;99.90;;;;;;2102839;28;20028;-68
2022/02/26 00:23:15;;;;;;;15.63;6.88;;;3.80;99.90;;;;;;2104627;28;20016;-68
2022/02/26 00:24:15;;;;;;;14.70;7.22;;;3.80;99.90;;;;;;2107525;28;20024;-68
2022/02/26 00:25:16;;;;;;;18.10;6.70;;;3.80;99.90;;;;;;2106479;28;20530;-68
2022/02/26 00:26:20;;;;;;;16.63;7.32;;;3.70;99.90;;;;;;2104829;28;20181;-68
2022/02/26 00:27:21;;;;;;;15.27;6.80;;;3.70;99.90;;;;;;2104561;28;20485;-68
2022/02/26 00:28:22;;;;;;;20.98;7.60;;;3.70;99.90;;;;;;2106801;28;20714;-69
2022/02/26 00:29:23;;;;;;;17.83;7.50;;;3.70;99.90;;;;;;2103873;28;20028;-68
2022/02/26 00:30:23;;;;;;;18.98;7.18;;;3.70;99.90;;;;;;2109324;28;20016;-68
2022/02/26 00:31:24;;;;;;;15.80;7.00;;;3.60;99.90;;;;;;2105036;28;20067;-68
2022/02/26 00:32:24;;;;;;;17.38;6.57;;;3.70;99.90;;;;;;2105711;28;20030;-68
2022/02/26 00:33:25;;;;;;;23.40;8.10;;;3.70;99.90;;;;;;2109925;28;20475;-68
2022/02/26 00:34:25;;;;;;;19.83;7.53;;;3.60;99.90;;;;;;2104729;28;20040;-68
2022/02/26 00:35:26;;;;;;;15.93;6.70;;;3.60;99.90;;;;;;2106576;28;20133;-68
2022/02/26 00:36:28;;;;;;;19.42;7.22;;;3.70;99.90;;;;;;2108234;28;20411;-68
2022/02/26 00:37:28;;;;;;;18.98;7.35;;;3.70;99.90;;;;;;2106252;28;20030;-68
2022/02/26 00:38:29;;;;;;;22.50;7.68;;;3.60;99.90;;;;;;2108226;28;20024;-68
2022/02/26 00:39:29;;;;;;;21.27;7.57;;;3.60;99.90;;;;;;2103145;28;20503;-69
2022/02/26 00:40:30;;;;;;;17.08;6.50;;;3.60;99.90;;;;;;2101598;28;20028;-69
2022/02/26 00:41:31;;;;;;;18.27;6.82;;;3.60;99.90;;;;;;2108677;28;20463;-68
2022/02/26 00:42:32;;;;;;;16.17;6.63;;;3.70;99.90;;;;;;2104523;28;20016;-68
2022/02/26 00:43:32;;;;;;;12.43;6.55;;;3.70;99.90;;;;;;2104594;28;20029;-68
2022/02/26 00:44:34;;;;;;;19.52;6.88;;;3.70;99.90;;;;;;2107304;28;20031;-68
2022/02/26 00:45:34;;;;;;;13.93;6.68;;;3.60;99.90;;;;;;2105703;28;20084;-68
2022/02/26 00:46:35;;;;;;;16.90;7.68;;;3.70;99.90;;;;;;2106890;28;20069;-68
2022/02/26 00:47:36;;;;;;;14.52;6.82;;;3.70;99.90;;;;;;2102312;28;20020;-68
2022/02/26 00:49:56;;;;;;;22.20;8.27;;;3.70;99.90;;;;;;2106098;28;20036;-68
2022/02/26 00:50:56;;;;;;;19.05;8.00;;;3.60;99.90;;;;;;2102351;28;20571;-68
2022/02/26 00:51:57;;;;;;;16.27;7.88;;;3.70;99.90;;;;;;2103712;28;20039;-68
2022/02/26 00:52:58;;;;;;;15.25;7.13;;;3.70;99.90;;;;;;2107164;28;20058;-68
2022/02/26 00:53:58;;;;;;;18.13;8.05;;;3.70;99.90;;;;;;2103321;28;20028;-68
2022/02/26 00:54:59;;;;;;;17.20;5.88;;;3.70;99.90;;;;;;2105406;28;20451;-68
2022/02/26 00:56:00;;;;;;;14.13;6.07;;;3.70;99.90;;;;;;2102952;28;20030;-68
2022/02/26 00:57:00;;;;;;;14.00;7.15;;;3.70;99.90;;;;;;2102612;28;20616;-68
2022/02/26 00:58:03;;;;;;;21.25;8.20;;;3.70;99.90;;;;;;2106721;28;20031;-68
2022/02/26 00:59:04;;;;;;;21.25;7.53;;;3.70;99.90;;;;;;2107951;28;20028;-68
2022/02/26 01:00:10;;;;;;;13.88;7.13;;;3.70;99.90;;;;;;2106745;28;20114;-68
2022/02/26 01:01:11;;;;;;;20.83;7.95;;;3.70;99.90;;;;;;2104714;28;20701;-68
2022/02/26 01:02:12;;;;;;;17.17;7.85;;;3.70;99.90;;;;;;2105498;28;20081;-68
2022/02/26 01:03:12;;;;;;;20.75;7.82;;;3.70;99.90;;;;;;2105257;28;20069;-68
2022/02/26 01:04:13;;;;;;;18.30;7.93;;;3.70;99.90;;;;;;2106306;28;20031;-68
2022/02/26 01:05:14;;;;;;;16.42;7.55;;;3.70;99.90;;;;;;2101497;28;20067;-68
2022/02/26 01:06:14;;;;;;;14.90;7.50;;;3.70;99.90;;;;;;2109454;28;20563;-68
2022/02/26 01:07:15;;;;;;;16.92;7.47;;;3.80;99.90;;;;;;2106923;28;20514;-68
2022/02/26 01:08:16;;;;;;;17.98;7.88;;;3.80;99.90;;;;;;2104372;28;20052;-68
2022/02/26 01:09:17;;;;;;;16.33;7.78;;;3.80;99.90;;;;;;2103047;28;20050;-68
2022/02/26 01:10:17;;;;;;;20.08;7.35;;;3.80;99.90;;;;;;2105242;28;20369;-68
2022/02/26 01:11:18;;;;;;;18.73;7.68;;;3.80;99.90;;;;;;2102718;28;20043;-68
2022/02/26 01:12:19;;;;;;;18.40;7.47;;;3.80;99.90;;;;;;2098965;28;20024;-68
2022/02/26 01:13:19;;;;;;;21.90;8.68;;;3.80;99.90;;;;;;2104687;28;20026;-69
2022/02/26 01:14:20;;;;;;;20.17;8.98;;;3.90;99.90;;;;;;2104583;28;20070;-69
2022/02/26 01:15:21;;;;;;;19.42;8.70;;;3.90;99.90;;;;;;2107613;28;20076;-68
2022/02/26 01:16:21;;;;;;;24.35;8.75;;;3.90;99.90;;;;;;2103592;28;20032;-68
2022/02/26 01:17:22;;;;;;;25.17;7.97;;;3.90;99.90;;;;;;2102941;28;20028;-68
2022/02/26 01:18:22;;;;;;;18.08;8.60;;;3.90;99.90;;;;;;2104695;28;20384;-68
2022/02/26 01:19:23;;;;;;;19.63;8.85;;;3.90;99.90;;;;;;2102254;28;20055;-68
2022/02/26 01:20:24;;;;;;;23.38;8.65;;;3.90;99.90;;;;;;2109380;28;20051;-68
2022/02/26 01:21:24;;;;;;;21.52;9.38;;;3.90;99.90;;;;;;2105367;28;20051;-68
2022/02/26 01:22:25;;;;;;;21.98;8.57;;;3.90;99.90;;;;;;2105681;28;20020;-68
2022/02/26 01:23:25;;;;;;;22.55;8.00;;;3.90;99.90;;;;;;2105498;28;20027;-68
2022/02/26 01:24:26;;;;;;;21.10;8.73;;;3.90;99.90;;;;;;2103071;28;20831;-69
2022/02/26 01:25:27;;;;;;;18.77;8.93;;;4.00;99.90;;;;;;2107621;28;20110;-68
2022/02/26 01:26:27;;;;;;;20.63;8.88;;;4.00;99.90;;;;;;2102817;28;20033;-68
2022/02/26 01:27:28;;;;;;;20.05;8.35;;;4.00;99.90;;;;;;2102017;28;20035;-68
2022/02/26 01:28:28;;;;;;;19.20;9.18;;;4.00;99.90;;;;;;2108423;28;20519;-68
2022/02/26 01:29:29;;;;;;;25.17;10.18;;;4.00;99.90;;;;;;2104672;28;20021;-68
2022/02/26 01:30:30;;;;;;;23.80;9.48;;;4.00;99.90;;;;;;2105990;28;20027;-68
2022/02/26 01:31:32;;;;;;;25.40;9.32;;;4.00;99.90;;;;;;2106555;28;20484;-68
2022/02/26 01:32:33;;;;;;;20.95;9.00;;;4.00;99.90;;;;;;2102822;28;20024;-68
2022/02/26 01:33:34;;;;;;;28.42;10.15;;;4.00;99.90;;;;;;2102751;28;20024;-68
2022/02/26 01:34:34;;;;;;;25.35;9.98;;;4.00;99.90;;;;;;2101651;28;20060;-68
2022/02/26 01:35:35;;;;;;;27.65;10.38;;;4.00;99.90;;;;;;2104686;28;20495;-68
2022/02/26 01:36:36;;;;;;;24.38;9.77;;;4.00;99.90;;;;;;2107394;28;20054;-68
2022/02/26 01:37:37;;;;;;;24.27;10.07;;;4.10;99.90;;;;;;2105776;28;20456;-68
2022/02/26 01:38:37;;;;;;;23.75;9.85;;;4.10;99.90;;;;;;2108954;28;20330;-68
2022/02/26 01:39:38;;;;;;;29.80;11.38;;;4.10;99.90;;;;;;2104237;28;20133;-68
2022/02/26 01:40:39;;;;;;;28.23;10.93;;;4.10;99.90;;;;;;2105285;28;20107;-68
2022/02/26 01:41:40;;;;;;;19.67;9.75;;;4.10;99.90;;;;;;2105814;28;20020;-68
2022/02/26 01:42:41;;;;;;;26.80;10.82;;;4.10;99.90;;;;;;2106349;28;20020;-68
2022/02/26 01:43:42;;;;;;;21.27;9.45;;;4.10;99.90;;;;;;2106443;28;20055;-68
2022/02/26 01:44:47;;;;;;;22.48;9.60;;;4.10;99.90;;;;;;2106312;28;20038;-68
2022/02/26 01:45:47;;;;;;;23.83;10.15;;;4.10;99.90;;;;;;2100779;28;20558;-68
2022/02/26 01:46:48;;;;;;;29.92;10.38;;;4.10;99.90;;;;;;2107861;28;20368;-68
2022/02/26 01:47:49;;;;;;;25.05;10.18;;;4.10;99.90;;;;;;2101116;28;20054;-69
2022/02/26 01:48:50;;;;;;;24.52;10.55;;;4.10;99.90;;;;;;2100826;28;20097;-68
2022/02/26 01:49:51;;;;;;;24.83;10.38;;;4.10;99.90;;;;;;2108237;28;20024;-68
2022/02/26 01:50:52;;;;;;;27.20;9.60;;;4.10;99.90;;;;;;2106631;28;20487;-68
2022/02/26 01:51:52;;;;;;;26.35;9.27;;;4.10;99.90;;;;;;2101659;28;20032;-68
2022/02/26 01:52:53;;;;;;;17.00;8.93;;;4.10;99.90;;;;;;2106523;28;20111;-68
2022/02/26 01:53:54;;;;;;;18.65;8.40;;;4.10;99.90;;;;;;2104088;28;20464;-68
2022/02/26 01:54:54;;;;;;;20.75;8.82;;;4.20;99.90;;;;;;2107939;28;20020;-68
2022/02/26 01:55:55;;;;;;;20.95;8.82;;;4.10;99.90;;;;;;2104432;28;20036;-69
2022/02/26 01:56:55;;;;;;;23.63;8.82;;;4.10;99.90;;;;;;2102762;28;20032;-68
2022/02/26 01:57:56;;;;;;;27.98;10.20;;;4.20;99.90;;;;;;2107040;28;20059;-68
2022/02/26 01:58:57;;;;;;;24.27;9.32;;;4.10;99.90;;;;;;2105703;28;20055;-68
2022/02/26 01:59:58;;;;;;;21.80;10.35;;;4.10;99.90;;;;;;2104972;28;20582;-68
2022/02/26 02:00:58;;;;;;;21.70;9.15;;;4.10;99.90;;;;;;2105518;28;20024;-68
2022/02/26 02:01:59;;;;;;;18.75;9.02;;;4.10;99.90;;;;;;2100704;28;20031;-68
2022/02/26 02:03:01;;;;;;;26.15;9.05;;;4.10;99.90;;;;;;2103781;28;20415;-68
2022/02/26 02:04:02;;;;;;;20.80;8.35;;;4.10;99.90;;;;;;2104650;28;20114;-68
2022/02/26 02:05:03;;;;;;;29.88;9.50;;;4.10;99.90;;;;;;2104353;28;20792;-68
2022/02/26 02:06:04;;;;;;;19.00;7.85;;;4.10;99.90;;;;;;2104018;28;20028;-68
2022/02/26 02:07:17;;;;;;;19.65;8.93;;;4.10;99.90;;;;;;2104675;28;20024;-68
2022/02/26 02:08:17;;;;;;;23.25;9.52;;;4.10;99.90;;;;;;2099577;28;20594;-68
2022/02/26 02:09:18;;;;;;;21.88;9.15;;;4.10;99.90;;;;;;2101656;28;20504;-68
2022/02/26 02:10:20;;;;;;;20.27;9.13;;;4.10;99.90;;;;;;2102272;28;20032;-68
2022/02/26 02:11:22;;;;;;;21.85;8.90;;;4.10;99.90;;;;;;2105392;28;20085;-68
2022/02/26 02:12:22;;;;;;;25.02;8.65;;;4.10;99.90;;;;;;2105106;28;20548;-68
2022/02/26 02:13:23;;;;;;;22.75;8.52;;;4.00;99.90;;;;;;2102553;28;20028;-68
2022/02/26 02:14:24;;;;;;;23.33;9.75;;;4.00;99.90;;;;;;2104824;28;20066;-68
2022/02/26 02:15:36;;;;;;;19.80;9.10;;;4.00;99.90;;;;;;2106280;28;20027;-68
2022/02/26 02:16:37;;;;;;;22.02;8.23;;;4.00;99.90;;;;;;2105504;28;20020;-68
2022/02/26 02:17:43;;;;;;;21.27;8.00;;;4.00;99.90;;;;;;2104796;28;20468;-68
2022/02/26 02:18:44;;;;;;;23.63;8.85;;;4.00;99.90;;;;;;2103511;28;20027;-68
2022/02/26 02:19:45;;;;;;;20.65;9.02;;;4.00;99.90;;;;;;2102777;28;20059;-68
2022/02/26 02:20:45;;;;;;;23.48;8.07;;;4.00;99.90;;;;;;2107138;28;20377;-68
2022/02/26 02:21:46;;;;;;;24.13;9.05;;;4.00;99.90;;;;;;2104152;28;20434;-68
2022/02/26 02:22:46;;;;;;;26.90;8.68;;;4.00;99.90;;;;;;2106470;28;20058;-68
2022/02/26 02:23:47;;;;;;;22.25;8.45;;;4.00;99.90;;;;;;2104664;28;20058;-68
2022/02/26 02:24:48;;;;;;;18.35;7.82;;;4.00;99.90;;;;;;2105658;28;20020;-68
2022/02/26 02:25:52;;;;;;;14.93;7.43;;;4.00;99.90;;;;;;2105177;28;20089;-68
2022/02/26 02:26:53;;;;;;;17.15;7.75;;;4.00;99.90;;;;;;2104883;28;20024;-68
2022/02/26 02:27:55;;;;;;;17.08;8.27;;;4.00;99.90;;;;;;2104960;28;20028;-68
2022/02/26 02:28:56;;;;;;;18.67;8.23;;;4.00;99.90;;;;;;2104407;28;20062;-68
2022/02/26 02:29:57;;;;;;;24.27;9.70;;;4.00;99.90;;;;;;2104637;28;20024;-68
2022/02/26 02:30:57;;;;;;;20.50;8.52;;;4.00;99.90;;;;;;2104978;28;20038;-68
2022/02/26 02:31:59;;;;;;;21.95;7.88;;;4.00;99.90;;;;;;2104887;28;20020;-68
2022/02/26 02:33:00;;;;;;;18.05;8.18;;;4.00;99.90;;;;;;2105097;28;20596;-68
2022/02/26 02:34:00;;;;;;;19.20;8.38;;;4.00;99.90;;;;;;2106974;28;20093;-68
2022/02/26 02:35:01;;;;;;;23.65;8.75;;;4.00;99.90;;;;;;2104466;28;20025;-68
2022/02/26 02:36:02;;;;;;;23.13;8.98;;;4.00;99.90;;;;;;2104979;28;20024;-68
2022/02/26 02:37:03;;;;;;;23.10;9.30;;;4.00;99.90;;;;;;2106704;28;20032;-68
2022/02/26 02:38:12;;;;;;;23.88;8.82;;;4.00;99.90;;;;;;2107275;28;20023;-68
2022/02/26 02:39:14;;;;;;;31.35;9.70;;;4.10;99.90;;;;;;2104957;28;20496;-68
2022/02/26 02:40:15;;;;;;;21.23;8.60;;;4.00;99.90;;;;;;2105596;28;20488;-68
2022/02/26 02:41:15;;;;;;;24.05;8.10;;;4.10;99.90;;;;;;2104785;28;20436;-68
2022/02/26 02:42:16;;;;;;;17.67;7.95;;;4.00;99.90;;;;;;2105151;28;20059;-68
2022/02/26 02:43:17;;;;;;;19.67;8.25;;;4.00;99.90;;;;;;2103691;28;20365;-68
2022/02/26 02:44:18;;;;;;;16.27;7.90;;;4.10;99.90;;;;;;2103975;28;20406;-68
2022/02/26 02:45:19;;;;;;;22.50;9.38;;;4.10;99.90;;;;;;2105092;28;20025;-68
2022/02/26 02:46:20;;;;;;;21.10;8.23;;;4.10;99.90;;;;;;2106206;28;20020;-68
2022/02/26 02:47:20;;;;;;;18.38;7.63;;;4.10;99.90;;;;;;2104444;28;20099;-68
2022/02/26 02:48:21;;;;;;;17.73;7.47;;;4.10;99.90;;;;;;2098557;28;20082;-68
2022/02/26 02:49:22;;;;;;;20.50;8.43;;;4.10;99.90;;;;;;2106782;28;20096;-68
2022/02/26 02:50:22;;;;;;;26.27;9.25;;;4.10;99.90;;;;;;2103419;28;20035;-68
2022/02/26 02:51:23;;;;;;;21.65;9.32;;;4.10;99.90;;;;;;2108640;28;20110;-68
2022/02/26 02:52:23;;;;;;;20.58;8.85;;;4.10;99.90;;;;;;2104508;28;20384;-68
2022/02/26 02:53:24;;;;;;;22.10;9.48;;;4.10;99.90;;;;;;2101850;28;20040;-68
2022/02/26 02:54:24;;;;;;;22.42;8.60;;;4.10;99.90;;;;;;2105294;28;20063;-69
2022/02/26 02:55:25;;;;;;;24.42;8.38;;;4.10;99.90;;;;;;2104447;28;20631;-68
2022/02/26 02:56:26;;;;;;;17.55;7.75;;;4.10;99.90;;;;;;2106216;28;20063;-68
2022/02/26 02:57:26;;;;;;;20.92;8.45;;;4.10;99.90;;;;;;2105081;28;20032;-69
2022/02/26 02:58:28;;;;;;;23.75;9.80;;;4.10;99.90;;;;;;2101592;28;20036;-69
2022/02/26 02:59:29;;;;;;;23.23;8.48;;;4.10;99.90;;;;;;2106372;28;20097;-68
2022/02/26 03:00:30;;;;;;;23.70;8.57;;;4.10;99.90;;;;;;2101046;28;20105;-68
2022/02/26 03:01:31;;;;;;;22.45;8.35;;;4.20;99.90;;;;;;2103012;28;20020;-68
2022/02/26 03:02:32;;;;;;;31.23;9.35;;;4.10;99.90;;;;;;2106070;28;20020;-68
2022/02/26 03:03:32;;;;;;;25.95;8.88;;;4.20;99.90;;;;;;2103717;28;20028;-68
2022/02/26 03:04:33;;;;;;;23.88;9.73;;;4.20;99.90;;;;;;2106259;28;20022;-69
2022/02/26 03:05:33;;;;;;;32.25;10.00;;;4.20;99.90;;;;;;2105802;28;20024;-69
2022/02/26 03:06:34;;;;;;;23.05;9.20;;;4.20;99.90;;;;;;2102765;28;20512;-69
2022/02/26 03:07:35;;;;;;;26.02;9.32;;;4.20;99.90;;;;;;2106062;28;20093;-69
2022/02/26 03:08:35;;;;;;;26.23;9.27;;;4.20;99.90;;;;;;2106162;28;20020;-69
2022/02/26 03:09:36;;;;;;;25.98;8.55;;;4.20;99.90;;;;;;2108260;28;20449;-69
2022/02/26 03:10:36;;;;;;;33.42;10.18;;;4.20;99.90;;;;;;2109288;28;20457;-69
2022/02/26 03:11:37;;;;;;;22.65;8.68;;;4.20;99.90;;;;;;2107722;28;20035;-69
2022/02/26 03:12:37;;;;;;;30.35;9.13;;;4.20;99.90;;;;;;2105202;28;20749;-69
2022/02/26 03:13:41;;;;;;;29.95;9.70;;;4.30;99.90;;;;;;2105495;28;20021;-69
2022/02/26 03:14:42;;;;;;;36.78;10.35;;;4.30;99.90;;;;;;2103089;28;20024;-69
2022/02/26 03:15:42;;;;;;;29.17;10.50;;;4.30;99.90;;;;;;2103905;28;20059;-69
2022/02/26 03:16:43;;;;;;;31.23;9.93;;;4.30;99.90;;;;;;2106458;28;20152;-69
2022/02/26 03:17:44;;;;;;;22.52;9.80;;;4.30;99.90;;;;;;2107651;28;20929;-69
2022/02/26 03:18:44;;;;;;;26.40;10.00;;;4.30;99.90;;;;;;2107000;28;20107;-69
2022/02/26 03:19:49;;;;;;;32.28;10.65;;;4.30;99.90;;;;;;2103888;28;20515;-69
2022/02/26 03:20:50;;;;;;;27.55;10.43;;;4.40;99.90;;;;;;2106511;28;20016;-69
2022/02/26 03:21:51;;;;;;;23.33;10.48;;;4.30;99.90;;;;;;2107940;28;20039;-69
2022/02/26 03:22:51;;;;;;;25.02;10.82;;;4.40;99.90;;;;;;2104343;28;20026;-69
2022/02/26 03:23:52;;;;;;;24.27;9.80;;;4.40;99.90;;;;;;2107868;28;20110;-69
2022/02/26 03:24:52;;;;;;;24.83;10.32;;;4.40;99.90;;;;;;2107553;28;20375;-69
2022/02/26 03:25:53;;;;;;;24.38;9.45;;;4.40;99.90;;;;;;2106081;28;20028;-69
2022/02/26 03:26:56;;;;;;;25.42;9.93;;;4.40;99.90;;;;;;2106771;28;20050;-69
2022/02/26 03:27:57;;;;;;;24.75;9.65;;;4.40;99.90;;;;;;2105809;28;20028;-69
2022/02/26 03:28:57;;;;;;;26.25;8.85;;;4.40;99.90;;;;;;2108630;28;20020;-69
2022/02/26 03:29:59;;;;;;;28.13;10.00;;;4.40;99.90;;;;;;2104925;28;20472;-69
2022/02/26 03:30:59;;;;;;;19.92;9.25;;;4.50;99.90;;;;;;2103789;28;20027;-69
2022/02/26 03:32:00;;;;;;;28.27;9.93;;;4.50;99.90;;;;;;2108322;28;20039;-69
2022/02/26 03:33:00;;;;;;;29.60;10.25;;;4.50;99.90;;;;;;2103452;28;20487;-69
2022/02/26 03:34:01;;;;;;;22.75;9.90;;;4.50;99.90;;;;;;2106294;28;20122;-69
2022/02/26 03:35:03;;;;;;;28.58;9.50;;;4.50;99.90;;;;;;2108723;28;20056;-69
2022/02/26 03:36:03;;;;;;;26.25;9.48;;;4.50;99.90;;;;;;2103340;28;20031;-69
2022/02/26 03:37:05;;;;;;;26.15;9.80;;;4.50;99.90;;;;;;2107402;28;20115;-69
2022/02/26 03:38:05;;;;;;;27.35;9.48;;;4.50;99.90;;;;;;2109419;28;20041;-69
2022/02/26 03:39:06;;;;;;;25.33;9.82;;;4.50;99.90;;;;;;2105579;28;20059;-69
2022/02/26 03:40:09;;;;;;;26.73;9.05;;;4.50;99.90;;;;;;2103619;28;20024;-69
2022/02/26 03:41:13;;;;;;;22.52;9.52;;;4.50;99.90;;;;;;2107903;28;20028;-69
2022/02/26 03:42:14;;;;;;;25.05;9.77;;;4.60;99.90;;;;;;2107816;28;20026;-69
2022/02/26 03:43:14;;;;;;;21.30;9.48;;;4.50;99.90;;;;;;2107629;28;20028;-69
2022/02/26 03:44:15;;;;;;;24.42;9.20;;;4.60;99.90;;;;;;2104947;28;20468;-69
2022/02/26 03:45:16;;;;;;;25.55;10.75;;;4.60;99.90;;;;;;2104705;28;20020;-69
2022/02/26 03:46:17;;;;;;;24.77;9.45;;;4.60;99.90;;;;;;2103787;28;20032;-69
2022/02/26 03:47:18;;;;;;;23.33;10.13;;;4.60;99.90;;;;;;2103891;28;20026;-69
2022/02/26 03:48:19;;;;;;;25.08;9.68;;;4.60;99.90;;;;;;2098979;28;20032;-69
2022/02/26 03:49:19;;;;;;;23.48;8.85;;;4.60;99.90;;;;;;2106839;28;20103;-69
2022/02/26 03:50:20;;;;;;;28.83;10.05;;;4.60;99.90;;;;;;2106643;28;20047;-69
2022/02/26 03:51:20;;;;;;;23.95;10.40;;;4.60;99.90;;;;;;2106143;28;20074;-69
2022/02/26 03:52:22;;;;;;;23.48;9.93;;;4.60;99.90;;;;;;2105941;28;20107;-69
2022/02/26 03:53:23;;;;;;;22.10;9.18;;;4.60;99.90;;;;;;2105002;28;20024;-69
2022/02/26 03:54:23;;;;;;;22.80;9.85;;;4.60;99.90;;;;;;2107671;28;20054;-69
2022/02/26 03:55:24;;;;;;;21.63;9.13;;;4.60;99.90;;;;;;2105829;28;20078;-69
2022/02/26 03:56:27;;;;;;;22.10;9.43;;;4.70;99.90;;;;;;2109210;28;20039;-69
2022/02/26 03:57:29;;;;;;;24.42;10.35;;;4.70;99.90;;;;;;2102765;28;20060;-69
2022/02/26 03:58:29;;;;;;;27.35;11.15;;;4.60;99.90;;;;;;2105299;28;20030;-69
2022/02/26 03:59:30;;;;;;;22.15;9.68;;;4.60;99.90;;;;;;2107635;28;20032;-69
2022/02/26 04:00:30;;;;;;;21.70;9.15;;;4.60;99.90;;;;;;2105897;28;20028;-69
2022/02/26 04:01:31;;;;;;;24.88;9.23;;;4.60;99.90;;;;;;2105936;28;20469;-69
2022/02/26 04:02:31;;;;;;;24.10;9.30;;;4.60;99.90;;;;;;2104116;28;20027;-69
2022/02/26 04:03:32;;;;;;;18.55;9.15;;;4.60;99.90;;;;;;2104321;28;20022;-69
2022/02/26 04:04:33;;;;;;;23.80;8.95;;;4.60;99.90;;;;;;2106883;28;20023;-69
2022/02/26 04:05:34;;;;;;;15.38;6.65;;;4.60;99.90;;;;;;2103429;28;20031;-69
2022/02/26 04:06:35;;;;;;;18.08;8.30;;;4.60;99.90;;;;;;2104699;28;20506;-69
2022/02/26 04:07:39;;;;;;;17.65;8.32;;;4.60;99.90;;;;;;2105217;28;20384;-69
2022/02/26 04:08:40;;;;;;;18.05;7.78;;;4.60;99.90;;;;;;2104703;28;20016;-69
2022/02/26 04:09:41;;;;;;;19.90;7.22;;;4.60;99.90;;;;;;2102052;28;20039;-69
2022/02/26 04:10:42;;;;;;;20.25;8.68;;;4.60;99.90;;;;;;2105337;28;20099;-68
2022/02/26 04:11:42;;;;;;;18.38;7.88;;;4.60;99.90;;;;;;2104454;28;20081;-68
2022/02/26 04:12:43;;;;;;;15.30;7.72;;;4.60;99.90;;;;;;2105187;28;20047;-69
2022/02/26 04:13:43;;;;;;;18.13;6.75;;;4.60;99.90;;;;;;2106943;28;20052;-68
2022/02/26 04:14:44;;;;;;;18.23;8.73;;;4.60;99.90;;;;;;2104546;28;20132;-68
2022/02/26 04:15:45;;;;;;;19.15;8.07;;;4.60;99.90;;;;;;2103576;28;20077;-68
2022/02/26 04:16:45;;;;;;;22.02;8.38;;;4.60;99.90;;;;;;2103797;28;20850;-68
2022/02/26 04:17:46;;;;;;;15.00;6.65;;;4.50;99.90;;;;;;2107814;28;20139;-69
2022/02/26 04:18:46;;;;;;;20.75;9.18;;;4.60;99.90;;;;;;2102856;28;20031;-68
2022/02/26 04:19:47;;;;;;;16.75;7.35;;;4.60;99.90;;;;;;2101329;28;20082;-69
2022/02/26 04:20:47;;;;;;;17.42;7.88;;;4.50;99.90;;;;;;2104897;28;20030;-69
2022/02/26 04:21:48;;;;;;;19.63;8.07;;;4.50;99.90;;;;;;2101558;28;20063;-69
2022/02/26 04:22:49;;;;;;;15.55;7.85;;;4.50;99.90;;;;;;2103522;28;20023;-68
2022/02/26 04:23:49;;;;;;;14.27;7.03;;;4.50;99.90;;;;;;2105470;28;20035;-68
2022/02/26 04:24:50;;;;;;;14.80;6.90;;;4.50;99.90;;;;;;2102934;28;20029;-68
2022/02/26 04:25:50;;;;;;;16.25;7.10;;;4.50;99.90;;;;;;2106428;28;20028;-68
2022/02/26 04:26:51;;;;;;;13.52;7.03;;;4.40;99.90;;;;;;2104944;28;20031;-68
2022/02/26 04:27:52;;;;;;;18.42;7.35;;;4.40;99.90;;;;;;2101116;28;20112;-69
2022/02/26 04:28:54;;;;;;;17.23;8.50;;;4.40;99.90;;;;;;2106936;28;20047;-68
2022/02/26 04:29:55;;;;;;;15.05;7.63;;;4.40;99.90;;;;;;2101872;28;20032;-68
2022/02/26 04:30:55;;;;;;;16.27;8.13;;;4.40;99.90;;;;;;2104096;28;20028;-68
2022/02/26 04:31:56;;;;;;;15.32;7.28;;;4.40;99.90;;;;;;2104926;28;20024;-68
2022/02/26 04:32:56;;;;;;;23.98;9.18;;;4.40;99.90;;;;;;2102466;28;20031;-68
2022/02/26 04:33:57;;;;;;;28.25;9.25;;;4.40;99.90;;;;;;2105719;28;20403;-68
2022/02/26 04:34:58;;;;;;;20.98;7.68;;;4.40;99.90;;;;;;2104993;28;20039;-68
2022/02/26 04:35:59;;;;;;;23.20;10.68;;;4.30;99.90;;;;;;2103183;28;20530;-68
2022/02/26 04:36:59;;;;;;;23.52;10.15;;;4.30;99.90;;;;;;2104897;28;20032;-68
2022/02/26 04:38:00;;;;;;;23.40;8.95;;;4.30;99.90;;;;;;2105559;28;20023;-68
2022/02/26 04:39:02;;;;;;;17.98;7.95;;;4.30;99.90;;;;;;2106684;28;20077;-68
2022/02/26 04:40:03;;;;;;;16.25;7.93;;;4.30;99.90;;;;;;2105272;28;20043;-68
2022/02/26 04:41:05;;;;;;;24.35;8.90;;;4.30;99.90;;;;;;2104264;28;20151;-68
2022/02/26 04:42:05;;;;;;;20.50;9.05;;;4.30;99.90;;;;;;2103749;28;20411;-68
2022/02/26 04:43:06;;;;;;;24.73;8.70;;;4.20;99.90;;;;;;2106892;28;20043;-68
2022/02/26 04:44:06;;;;;;;15.52;7.85;;;4.20;99.90;;;;;;2102410;28;20024;-68
2022/02/26 04:45:09;;;;;;;24.80;9.35;;;4.20;99.90;;;;;;2103675;28;20039;-68
2022/02/26 04:46:09;;;;;;;20.15;7.72;;;4.20;99.90;;;;;;2104888;28;20594;-68
2022/02/26 04:47:11;;;;;;;16.90;7.95;;;4.20;99.90;;;;;;2105387;28;20534;-68
2022/02/26 04:48:12;;;;;;;13.88;8.10;;;4.20;99.90;;;;;;2102215;28;20031;-68
2022/02/26 04:49:12;;;;;;;13.70;7.43;;;4.10;99.90;;;;;;2103459;28;20027;-68
2022/02/26 04:50:14;;;;;;;15.45;8.15;;;4.10;99.90;;;;;;2102578;28;20028;-68
2022/02/26 04:51:15;;;;;;;13.98;7.80;;;4.10;99.90;;;;;;2105919;28;20092;-68
2022/02/26 04:52:15;;;;;;;17.38;6.85;;;4.10;99.90;;;;;;2101417;28;20057;-68
2022/02/26 04:53:16;;;;;;;17.15;8.35;;;4.10;99.90;;;;;;2105572;28;20507;-68
2022/02/26 04:54:17;;;;;;;20.67;9.68;;;4.10;99.90;;;;;;2106997;28;20061;-68
2022/02/26 04:55:17;;;;;;;21.98;9.25;;;4.00;99.90;;;;;;2103965;28;20412;-68
2022/02/26 04:56:18;;;;;;;18.10;8.13;;;4.00;99.90;;;;;;2103383;28;20068;-68
2022/02/26 04:57:18;;;;;;;18.88;8.65;;;4.00;99.90;;;;;;2106041;28;20085;-68
2022/02/26 04:58:19;;;;;;;18.30;9.55;;;4.00;99.90;;;;;;2102677;28;20077;-68
2022/02/26 04:59:20;;;;;;;18.48;9.13;;;4.00;99.90;;;;;;2101588;28;20464;-68
2022/02/26 05:00:21;;;;;;;22.15;8.80;;;3.90;99.90;;;;;;2099831;28;20028;-68
2022/02/26 05:01:21;;;;;;;17.40;8.68;;;3.90;99.90;;;;;;2100660;28;20113;-68
2022/02/26 05:02:22;;;;;;;20.25;9.48;;;3.90;99.90;;;;;;2106752;28;20608;-68
2022/02/26 05:03:22;;;;;;;17.10;8.43;;;3.90;99.90;;;;;;2102853;28;20020;-68
2022/02/26 05:04:23;;;;;;;17.20;8.75;;;3.90;99.90;;;;;;2103745;28;20107;-68
2022/02/26 05:05:23;;;;;;;17.52;8.65;;;3.80;99.90;;;;;;2103483;28;20036;-68
2022/02/26 05:06:24;;;;;;;18.88;8.88;;;3.80;99.90;;;;;;2101269;28;20043;-68
2022/02/26 05:07:24;;;;;;;18.08;8.38;;;3.80;99.90;;;;;;2104175;28;20032;-68
2022/02/26 05:08:25;;;;;;;15.68;9.05;;;3.80;99.90;;;;;;2103612;28;20016;-68
2022/02/26 05:09:26;;;;;;;18.35;8.18;;;3.80;99.90;;;;;;2104414;28;20468;-68
2022/02/26 05:10:26;;;;;;;17.33;9.27;;;3.70;99.90;;;;;;2108402;28;20039;-68
2022/02/26 05:11:28;;;;;;;16.40;7.93;;;3.70;99.90;;;;;;2104898;28;20024;-68
2022/02/26 05:12:28;;;;;;;21.02;8.82;;;3.70;99.90;;;;;;2108166;28;20425;-68
2022/02/26 05:13:30;;;;;;;17.08;8.70;;;3.70;99.90;;;;;;2102871;28;20207;-69
2022/02/26 05:14:31;;;;;;;21.00;8.52;;;3.70;99.90;;;;;;2101357;28;20016;-69
2022/02/26 05:15:31;;;;;;;14.48;8.25;;;3.70;99.90;;;;;;2106234;28;20031;-68
2022/02/26 05:16:32;;;;;;;18.98;8.80;;;3.70;99.90;;;;;;2100512;28;20024;-68
2022/02/26 05:17:33;;;;;;;22.30;8.90;;;3.60;99.90;;;;;;2099279;28;20024;-68
2022/02/26 05:18:33;;;;;;;22.40;10.77;;;3.60;99.90;;;;;;2105204;28;20023;-68